sensor_id;sensor_type;location;lat;lon;timestamp;pressure;altitude;pressure_sealevel;temperature
50206;BMP280;36098;48.390;10.856;2023-08-06T00:01:11;95388.94;;;24.98
50206;BMP280;36098;48.390;10.856;2023-08-06T00:03:36;95387.38;;;24.97
50206;BMP280;36098;48.390;10.856;2023-08-06T00:06:02;95384.72;;;24.97
50206;BMP280;36098;48.390;10.856;2023-08-06T00:08:27;95384.13;;;25.00
50206;BMP280;36098;48.390;10.856;2023-08-06T00:10:52;95385.22;;;24.99
50206;BMP280;36098;48.390;10.856;2023-08-06T00:13:17;95377.88;;;24.96
50206;BMP280;36098;48.390;10.856;2023-08-06T00:15:43;95377.28;;;24.99
50206;BMP280;36098;48.390;10.856;2023-08-06T00:18:08;95383.06;;;25.01
50206;BMP280;36098;48.390;10.856;2023-08-06T00:20:33;95378.53;;;25.02
50206;BMP280;36098;48.390;10.856;2023-08-06T00:22:59;95371.69;;;25.01
50206;BMP280;36098;48.390;10.856;2023-08-06T00:25:24;95365.53;;;25.05
50206;BMP280;36098;48.390;10.856;2023-08-06T00:27:49;95357.59;;;25.05
50206;BMP280;36098;48.390;10.856;2023-08-06T00:30:14;95369.25;;;25.04
50206;BMP280;36098;48.390;10.856;2023-08-06T00:32:40;95369.59;;;25.11
50206;BMP280;36098;48.390;10.856;2023-08-06T00:35:05;95360.25;;;25.05
50206;BMP280;36098;48.390;10.856;2023-08-06T00:37:31;95358.88;;;25.08
50206;BMP280;36098;48.390;10.856;2023-08-06T00:39:56;95355.44;;;25.07
50206;BMP280;36098;48.390;10.856;2023-08-06T00:42:21;95357.59;;;25.05
50206;BMP280;36098;48.390;10.856;2023-08-06T00:44:47;95360.38;;;25.00
50206;BMP280;36098;48.390;10.856;2023-08-06T00:47:13;95366.88;;;25.03
50206;BMP280;36098;48.390;10.856;2023-08-06T00:49:39;95363.78;;;25.01
50206;BMP280;36098;48.390;10.856;2023-08-06T00:52:05;95365.31;;;25.02
50206;BMP280;36098;48.390;10.856;2023-08-06T00:54:31;95371.81;;;24.96
50206;BMP280;36098;48.390;10.856;2023-08-06T00:56:58;95364.09;;;24.99
50206;BMP280;36098;48.390;10.856;2023-08-06T00:59:25;95361.69;;;25.11
50206;BMP280;36098;48.390;10.856;2023-08-06T01:01:51;95355.75;;;25.06
50206;BMP280;36098;48.390;10.856;2023-08-06T01:04:16;95355.56;;;25.02
50206;BMP280;36098;48.390;10.856;2023-08-06T01:06:48;95354.00;;;25.01
50206;BMP280;36098;48.390;10.856;2023-08-06T01:15:11;95354.69;;;24.93
50206;BMP280;36098;48.390;10.856;2023-08-06T01:17:39;95350.09;;;24.99
50206;BMP280;36098;48.390;10.856;2023-08-06T01:20:06;95353.13;;;24.92
50206;BMP280;36098;48.390;10.856;2023-08-06T01:22:31;95356.91;;;25.00
50206;BMP280;36098;48.390;10.856;2023-08-06T01:24:56;95361.03;;;24.92
50206;BMP280;36098;48.390;10.856;2023-08-06T01:27:49;95362.03;;;24.96
50206;BMP280;36098;48.390;10.856;2023-08-06T01:30:22;95355.75;;;24.92
50206;BMP280;36098;48.390;10.856;2023-08-06T01:32:53;95358.13;;;24.94
50206;BMP280;36098;48.390;10.856;2023-08-06T01:35:20;95348.84;;;24.96
50206;BMP280;36098;48.390;10.856;2023-08-06T01:37:46;95355.19;;;24.95
50206;BMP280;36098;48.390;10.856;2023-08-06T01:40:12;95341.00;;;24.91
50206;BMP280;36098;48.390;10.856;2023-08-06T01:42:41;95351.28;;;24.93
50206;BMP280;36098;48.390;10.856;2023-08-06T01:45:17;95342.94;;;24.99
50206;BMP280;36098;48.390;10.856;2023-08-06T01:47:42;95345.41;;;24.96
50206;BMP280;36098;48.390;10.856;2023-08-06T01:50:11;95335.72;;;24.91
50206;BMP280;36098;48.390;10.856;2023-08-06T01:52:52;95329.69;;;24.91
50206;BMP280;36098;48.390;10.856;2023-08-06T01:55:29;95334.34;;;24.94
50206;BMP280;36098;48.390;10.856;2023-08-06T01:58:01;95327.72;;;24.96
50206;BMP280;36098;48.390;10.856;2023-08-06T02:00:29;95319.41;;;24.89
50206;BMP280;36098;48.390;10.856;2023-08-06T02:02:57;95313.63;;;24.87
50206;BMP280;36098;48.390;10.856;2023-08-06T02:05:25;95308.84;;;24.89
50206;BMP280;36098;48.390;10.856;2023-08-06T02:07:50;95308.34;;;24.87
50206;BMP280;36098;48.390;10.856;2023-08-06T02:10:21;95301.31;;;24.83
50206;BMP280;36098;48.390;10.856;2023-08-06T02:12:51;95293.91;;;24.85
50206;BMP280;36098;48.390;10.856;2023-08-06T02:15:16;95278.84;;;24.85
50206;BMP280;36098;48.390;10.856;2023-08-06T02:17:45;95283.16;;;24.81
50206;BMP280;36098;48.390;10.856;2023-08-06T02:20:13;95294.00;;;24.80
50206;BMP280;36098;48.390;10.856;2023-08-06T02:22:39;95294.66;;;24.85
50206;BMP280;36098;48.390;10.856;2023-08-06T02:25:05;95299.94;;;24.85
50206;BMP280;36098;48.390;10.856;2023-08-06T02:27:47;95304.75;;;24.83
50206;BMP280;36098;48.390;10.856;2023-08-06T02:30:15;95309.44;;;24.86
50206;BMP280;36098;48.390;10.856;2023-08-06T02:32:45;95300.75;;;24.86
50206;BMP280;36098;48.390;10.856;2023-08-06T02:35:22;95298.69;;;24.83
50206;BMP280;36098;48.390;10.856;2023-08-06T02:37:53;95302.41;;;24.82
50206;BMP280;36098;48.390;10.856;2023-08-06T02:40:22;95304.41;;;24.76
50206;BMP280;36098;48.390;10.856;2023-08-06T02:42:47;95302.84;;;24.75
50206;BMP280;36098;48.390;10.856;2023-08-06T02:45:16;95302.22;;;24.78
50206;BMP280;36098;48.390;10.856;2023-08-06T02:47:42;95305.34;;;24.80
50206;BMP280;36098;48.390;10.856;2023-08-06T02:50:07;95302.41;;;24.82
50206;BMP280;36098;48.390;10.856;2023-08-06T02:52:33;95292.03;;;24.85
50206;BMP280;36098;48.390;10.856;2023-08-06T02:54:59;95296.75;;;24.75
50206;BMP280;36098;48.390;10.856;2023-08-06T02:57:25;95293.72;;;24.81
50206;BMP280;36098;48.390;10.856;2023-08-06T02:59:50;95293.03;;;24.76
50206;BMP280;36098;48.390;10.856;2023-08-06T03:02:16;95288.56;;;24.76
50206;BMP280;36098;48.390;10.856;2023-08-06T03:04:41;95292.28;;;24.75
50206;BMP280;36098;48.390;10.856;2023-08-06T03:07:06;95281.81;;;24.70
50206;BMP280;36098;48.390;10.856;2023-08-06T03:09:31;95276.59;;;24.79
50206;BMP280;36098;48.390;10.856;2023-08-06T03:11:57;95273.78;;;24.75
50206;BMP280;36098;48.390;10.856;2023-08-06T03:14:22;95268.00;;;24.73
50206;BMP280;36098;48.390;10.856;2023-08-06T03:16:47;95271.16;;;24.75
50206;BMP280;36098;48.390;10.856;2023-08-06T03:19:12;95264.59;;;24.73
50206;BMP280;36098;48.390;10.856;2023-08-06T03:21:37;95261.34;;;24.76
50206;BMP280;36098;48.390;10.856;2023-08-06T03:24:03;95259.59;;;24.71
50206;BMP280;36098;48.390;10.856;2023-08-06T03:26:28;95263.16;;;24.67
50206;BMP280;36098;48.390;10.856;2023-08-06T03:28:53;95255.41;;;24.70
50206;BMP280;36098;48.390;10.856;2023-08-06T03:31:19;95265.31;;;24.65
50206;BMP280;36098;48.390;10.856;2023-08-06T03:33:44;95265.19;;;24.70
50206;BMP280;36098;48.390;10.856;2023-08-06T03:36:09;95274.97;;;24.69
50206;BMP280;36098;48.390;10.856;2023-08-06T03:38:34;95273.59;;;24.72
50206;BMP280;36098;48.390;10.856;2023-08-06T03:41:00;95272.31;;;24.69
50206;BMP280;36098;48.390;10.856;2023-08-06T03:43:25;95276.34;;;24.67
50206;BMP280;36098;48.390;10.856;2023-08-06T03:45:50;95262.25;;;24.71
50206;BMP280;36098;48.390;10.856;2023-08-06T03:48:15;95262.97;;;24.63
50206;BMP280;36098;48.390;10.856;2023-08-06T03:50:41;95260.19;;;24.68
50206;BMP280;36098;48.390;10.856;2023-08-06T03:53:06;95259.72;;;24.66
50206;BMP280;36098;48.390;10.856;2023-08-06T03:55:31;95265.31;;;24.65
50206;BMP280;36098;48.390;10.856;2023-08-06T03:57:56;95250.25;;;24.65
50206;BMP280;36098;48.390;10.856;2023-08-06T04:00:22;95258.84;;;24.71
50206;BMP280;36098;48.390;10.856;2023-08-06T04:02:47;95253.06;;;24.69
50206;BMP280;36098;48.390;10.856;2023-08-06T04:05:13;95261.00;;;24.69
50206;BMP280;36098;48.390;10.856;2023-08-06T04:07:38;95264.03;;;24.62
50206;BMP280;36098;48.390;10.856;2023-08-06T04:10:04;95266.09;;;24.65
50206;BMP280;36098;48.390;10.856;2023-08-06T04:12:30;95271.16;;;24.62
50206;BMP280;36098;48.390;10.856;2023-08-06T04:14:58;95269.81;;;24.64
50206;BMP280;36098;48.390;10.856;2023-08-06T04:17:24;95273.31;;;24.60
50206;BMP280;36098;48.390;10.856;2023-08-06T04:19:54;95268.53;;;24.62
50206;BMP280;36098;48.390;10.856;2023-08-06T04:22:20;95269.59;;;24.61
50206;BMP280;36098;48.390;10.856;2023-08-06T04:24:46;95271.00;;;24.58
50206;BMP280;36098;48.390;10.856;2023-08-06T04:27:11;95268.53;;;24.62
50206;BMP280;36098;48.390;10.856;2023-08-06T04:29:37;95268.53;;;24.62
50206;BMP280;36098;48.390;10.856;2023-08-06T04:32:08;95267.88;;;24.56
50206;BMP280;36098;48.390;10.856;2023-08-06T04:34:35;95270.19;;;24.58
50206;BMP280;36098;48.390;10.856;2023-08-06T04:37:01;95261.53;;;24.57
50206;BMP280;36098;48.390;10.856;2023-08-06T04:39:26;95256.88;;;24.63
50206;BMP280;36098;48.390;10.856;2023-08-06T04:41:51;95253.28;;;24.59
50206;BMP280;36098;48.390;10.856;2023-08-06T04:44:17;95257.81;;;24.58
50206;BMP280;36098;48.390;10.856;2023-08-06T04:46:42;95249.56;;;24.60
50206;BMP280;36098;48.390;10.856;2023-08-06T04:49:08;95251.44;;;24.59
50206;BMP280;36098;48.390;10.856;2023-08-06T04:51:33;95244.78;;;24.62
50206;BMP280;36098;48.390;10.856;2023-08-06T04:53:58;95249.41;;;24.56
50206;BMP280;36098;48.390;10.856;2023-08-06T04:56:23;95249.88;;;24.58
50206;BMP280;36098;48.390;10.856;2023-08-06T04:58:49;95258.88;;;24.57
50206;BMP280;36098;48.390;10.856;2023-08-06T05:01:14;95248.31;;;24.57
50206;BMP280;36098;48.390;10.856;2023-08-06T05:03:40;95258.88;;;24.57
50206;BMP280;36098;48.390;10.856;2023-08-06T05:06:05;95257.31;;;24.56
50206;BMP280;36098;48.390;10.856;2023-08-06T05:08:30;95252.03;;;24.56
50206;BMP280;36098;48.390;10.856;2023-08-06T05:10:56;95260.44;;;24.58
50206;BMP280;36098;48.390;10.856;2023-08-06T05:13:21;95242.84;;;24.54
50206;BMP280;36098;48.390;10.856;2023-08-06T05:15:46;95255.16;;;24.58
50206;BMP280;36098;48.390;10.856;2023-08-06T05:18:12;95248.91;;;24.54
50206;BMP280;36098;48.390;10.856;2023-08-06T05:20:39;95253.59;;;24.57
50206;BMP280;36098;48.390;10.856;2023-08-06T05:23:04;95248.69;;;24.51
50206;BMP280;36098;48.390;10.856;2023-08-06T05:25:30;95244.69;;;24.53
50206;BMP280;36098;48.390;10.856;2023-08-06T05:27:55;95250.47;;;24.55
50206;BMP280;36098;48.390;10.856;2023-08-06T05:30:20;95240.50;;;24.52
50206;BMP280;36098;48.390;10.856;2023-08-06T05:32:45;95241.56;;;24.51
50206;BMP280;36098;48.390;10.856;2023-08-06T05:35:11;95244.13;;;24.56
50206;BMP280;36098;48.390;10.856;2023-08-06T05:37:36;95234.44;;;24.52
50206;BMP280;36098;48.390;10.856;2023-08-06T05:40:01;95228.38;;;24.51
50206;BMP280;36098;48.390;10.856;2023-08-06T05:42:28;95236.22;;;24.56
50206;BMP280;36098;48.390;10.856;2023-08-06T05:44:53;95233.06;;;24.54
50206;BMP280;36098;48.390;10.856;2023-08-06T05:47:18;95233.56;;;24.56
50206;BMP280;36098;48.390;10.856;2023-08-06T05:49:45;95234.66;;;24.55
50206;BMP280;36098;48.390;10.856;2023-08-06T05:52:10;95231.50;;;24.53
50206;BMP280;36098;48.390;10.856;2023-08-06T05:54:35;95229.84;;;24.57
50206;BMP280;36098;48.390;10.856;2023-08-06T05:57:00;95224.38;;;24.54
50206;BMP280;36098;48.390;10.856;2023-08-06T05:59:26;95228.88;;;24.53
50206;BMP280;36098;48.390;10.856;2023-08-06T06:01:51;95234.06;;;24.58
50206;BMP280;36098;48.390;10.856;2023-08-06T06:04:16;95233.44;;;24.61
50206;BMP280;36098;48.390;10.856;2023-08-06T06:06:41;95235.59;;;24.59
50206;BMP280;36098;48.390;10.856;2023-08-06T06:09:07;95227.22;;;24.57
50206;BMP280;36098;48.390;10.856;2023-08-06T06:11:32;95228.28;;;24.56
50206;BMP280;36098;48.390;10.856;2023-08-06T06:13:57;95228.78;;;24.58
50206;BMP280;36098;48.390;10.856;2023-08-06T06:16:23;95218.84;;;24.64
50206;BMP280;36098;48.390;10.856;2023-08-06T06:18:48;95222.28;;;24.64
50206;BMP280;36098;48.390;10.856;2023-08-06T06:21:13;95218.38;;;24.62
50206;BMP280;36098;48.390;10.856;2023-08-06T06:23:38;95215.75;;;24.62
50206;BMP280;36098;48.390;10.856;2023-08-06T06:26:04;95230.50;;;24.63
50206;BMP280;36098;48.390;10.856;2023-08-06T06:28:29;95217.13;;;24.59
50206;BMP280;36098;48.390;10.856;2023-08-06T06:31:00;95208.63;;;24.62
50206;BMP280;36098;48.390;10.856;2023-08-06T06:33:26;95220.25;;;24.61
50206;BMP280;36098;48.390;10.856;2023-08-06T06:35:51;95224.66;;;24.66
50206;BMP280;36098;48.390;10.856;2023-08-06T06:38:16;95219.94;;;24.63
50206;BMP280;36098;48.390;10.856;2023-08-06T06:40:41;95219.19;;;24.49
50206;BMP280;36098;48.390;10.856;2023-08-06T06:43:07;95224.28;;;24.45
50206;BMP280;36098;48.390;10.856;2023-08-06T06:45:32;95220.75;;;24.50
50206;BMP280;36098;48.390;10.856;2023-08-06T06:47:57;95227.19;;;24.44
50206;BMP280;36098;48.390;10.856;2023-08-06T06:50:23;95222.81;;;24.39
50206;BMP280;36098;48.390;10.856;2023-08-06T06:52:49;95228.94;;;24.48
50206;BMP280;36098;48.390;10.856;2023-08-06T06:55:14;95230.50;;;24.49
50206;BMP280;36098;48.390;10.856;2023-08-06T06:57:40;95225.34;;;24.44
50206;BMP280;36098;48.390;10.856;2023-08-06T07:00:05;95230.03;;;24.47
50206;BMP280;36098;48.390;10.856;2023-08-06T07:02:31;95227.50;;;24.42
50206;BMP280;36098;48.390;10.856;2023-08-06T07:04:56;95233.38;;;24.39
50206;BMP280;36098;48.390;10.856;2023-08-06T07:07:21;95231.34;;;24.36
50206;BMP280;36098;48.390;10.856;2023-08-06T07:09:47;95221.28;;;24.38
50206;BMP280;36098;48.390;10.856;2023-08-06T07:12:12;95227.59;;;24.51
50206;BMP280;36098;48.390;10.856;2023-08-06T07:14:37;95223.59;;;24.53
50206;BMP280;36098;48.390;10.856;2023-08-06T07:17:04;95230.69;;;24.66
50206;BMP280;36098;48.390;10.856;2023-08-06T07:19:29;95228.78;;;24.58
50206;BMP280;36098;48.390;10.856;2023-08-06T07:21:54;95234.34;;;24.43
50206;BMP280;36098;48.390;10.856;2023-08-06T07:24:21;95239.50;;;24.48
50206;BMP280;36098;48.390;10.856;2023-08-06T07:26:46;95245.00;;;24.52
50206;BMP280;36098;48.390;10.856;2023-08-06T07:29:11;95235.03;;;24.49
50206;BMP280;36098;48.390;10.856;2023-08-06T07:31:37;95241.06;;;24.49
50206;BMP280;36098;48.390;10.856;2023-08-06T07:34:02;95235.31;;;24.47
50206;BMP280;36098;48.390;10.856;2023-08-06T07:36:28;95238.53;;;24.44
50206;BMP280;36098;48.390;10.856;2023-08-06T07:38:53;95242.84;;;24.40
50206;BMP280;36098;48.390;10.856;2023-08-06T07:41:22;95237.09;;;24.25
50206;BMP280;36098;48.390;10.856;2023-08-06T07:43:48;95249.16;;;24.17
50206;BMP280;36098;48.390;10.856;2023-08-06T07:46:13;95243.28;;;24.20
50206;BMP280;36098;48.390;10.856;2023-08-06T07:48:39;95247.16;;;24.36
50206;BMP280;36098;48.390;10.856;2023-08-06T07:51:04;95245.59;;;24.35
50206;BMP280;36098;48.390;10.856;2023-08-06T07:53:29;95246.34;;;24.49
50206;BMP280;36098;48.390;10.856;2023-08-06T07:55:55;95240.59;;;24.83
50206;BMP280;36098;48.390;10.856;2023-08-06T07:58:21;95245.63;;;24.71
50206;BMP280;36098;48.390;10.856;2023-08-06T08:00:47;95250.84;;;24.62
50206;BMP280;36098;48.390;10.856;2023-08-06T08:03:13;95241.16;;;24.58
50206;BMP280;36098;48.390;10.856;2023-08-06T08:05:39;95245.69;;;24.57
50206;BMP280;36098;48.390;10.856;2023-08-06T08:08:05;95255.41;;;24.70
50206;BMP280;36098;48.390;10.856;2023-08-06T08:10:31;95257.22;;;24.83
50206;BMP280;36098;48.390;10.856;2023-08-06T08:12:56;95260.47;;;24.80
50206;BMP280;36098;48.390;10.856;2023-08-06T08:15:21;95267.97;;;24.51
50206;BMP280;36098;48.390;10.856;2023-08-06T08:17:47;95271.00;;;24.31
50206;BMP280;36098;48.390;10.856;2023-08-06T08:20:15;95262.34;;;24.17
50206;BMP280;36098;48.390;10.856;2023-08-06T08:22:41;95255.97;;;24.05
50206;BMP280;36098;48.390;10.856;2023-08-06T08:25:06;95262.22;;;23.95
50206;BMP280;36098;48.390;10.856;2023-08-06T08:27:32;95260.00;;;23.89
50206;BMP280;36098;48.390;10.856;2023-08-06T08:29:57;95246.69;;;23.80
50206;BMP280;36098;48.390;10.856;2023-08-06T08:32:22;95245.13;;;23.79
50206;BMP280;36098;48.390;10.856;2023-08-06T08:34:48;95247.19;;;23.82
50206;BMP280;36098;48.390;10.856;2023-08-06T08:37:14;95246.63;;;23.85
50206;BMP280;36098;48.390;10.856;2023-08-06T08:39:39;95253.53;;;23.95
50206;BMP280;36098;48.390;10.856;2023-08-06T08:42:05;95254.81;;;24.11
50206;BMP280;36098;48.390;10.856;2023-08-06T08:44:32;95242.38;;;24.25
50206;BMP280;36098;48.390;10.856;2023-08-06T08:46:59;95255.47;;;24.30
50206;BMP280;36098;48.390;10.856;2023-08-06T08:49:26;95253.59;;;24.30
50206;BMP280;36098;48.390;10.856;2023-08-06T08:51:53;95252.25;;;24.33
50206;BMP280;36098;48.390;10.856;2023-08-06T08:54:21;95249.81;;;24.36
50206;BMP280;36098;48.390;10.856;2023-08-06T08:56:48;95256.44;;;24.34
50206;BMP280;36098;48.390;10.856;2023-08-06T08:59:13;95254.41;;;24.31
50206;BMP280;36098;48.390;10.856;2023-08-06T09:01:39;95258.28;;;24.33
50206;BMP280;36098;48.390;10.856;2023-08-06T09:04:07;95258.28;;;24.33
50206;BMP280;36098;48.390;10.856;2023-08-06T09:06:36;95260.66;;;24.35
50206;BMP280;36098;48.390;10.856;2023-08-06T09:09:08;95255.09;;;24.36
50206;BMP280;36098;48.390;10.856;2023-08-06T09:11:37;95266.72;;;24.35
50206;BMP280;36098;48.390;10.856;2023-08-06T09:14:08;95275.19;;;24.32
50206;BMP280;36098;48.390;10.856;2023-08-06T09:16:37;95277.06;;;24.32
50206;BMP280;36098;48.390;10.856;2023-08-06T09:19:13;95276.47;;;24.35
50206;BMP280;36098;48.390;10.856;2023-08-06T09:21:40;95279.09;;;24.35
50206;BMP280;36098;48.390;10.856;2023-08-06T09:24:10;95285.75;;;24.32
50206;BMP280;36098;48.390;10.856;2023-08-06T09:26:37;95272.56;;;24.32
50206;BMP280;36098;48.390;10.856;2023-08-06T09:29:05;95268.84;;;24.33
50206;BMP280;36098;48.390;10.856;2023-08-06T09:31:42;95270.41;;;24.34
50206;BMP280;36098;48.390;10.856;2023-08-06T09:34:26;95274.72;;;24.30
50206;BMP280;36098;48.390;10.856;2023-08-06T09:36:53;95277.34;;;24.30
50206;BMP280;36098;48.390;10.856;2023-08-06T09:39:20;95278.16;;;24.31
50206;BMP280;36098;48.390;10.856;2023-08-06T09:41:47;95276.88;;;24.28
50206;BMP280;36098;48.390;10.856;2023-08-06T09:44:21;95272.47;;;24.24
50206;BMP280;36098;48.390;10.856;2023-08-06T09:46:49;95280.59;;;24.27
50206;BMP280;36098;48.390;10.856;2023-08-06T09:49:15;95289.84;;;24.25
50206;BMP280;36098;48.390;10.856;2023-08-06T09:51:41;95281.38;;;24.28
50206;BMP280;36098;48.390;10.856;2023-08-06T09:54:06;95277.94;;;24.27
50206;BMP280;36098;48.390;10.856;2023-08-06T09:56:33;95278.66;;;24.19
50206;BMP280;36098;48.390;10.856;2023-08-06T09:59:06;95278.06;;;24.22
50206;BMP280;36098;48.390;10.856;2023-08-06T10:01:35;95287.03;;;24.21
50206;BMP280;36098;48.390;10.856;2023-08-06T10:04:05;95281.97;;;24.11
50206;BMP280;36098;48.390;10.856;2023-08-06T10:06:34;95280.81;;;24.17
50206;BMP280;36098;48.390;10.856;2023-08-06T10:09:00;95289.78;;;24.16
50206;BMP280;36098;48.390;10.856;2023-08-06T10:11:26;95291.50;;;24.34
50206;BMP280;36098;48.390;10.856;2023-08-06T10:13:57;95289.75;;;24.43
50206;BMP280;36098;48.390;10.856;2023-08-06T10:16:23;95291.78;;;24.46
50206;BMP280;36098;48.390;10.856;2023-08-06T10:18:50;95288.00;;;24.39
50206;BMP280;36098;48.390;10.856;2023-08-06T10:21:16;95292.50;;;24.38
50206;BMP280;36098;48.390;10.856;2023-08-06T10:23:41;95294.25;;;24.43
50206;BMP280;36098;48.390;10.856;2023-08-06T10:26:07;95283.41;;;24.44
50206;BMP280;36098;48.390;10.856;2023-08-06T10:28:37;95292.41;;;24.43
50206;BMP280;36098;48.390;10.856;2023-08-06T10:31:02;95284.28;;;24.40
50206;BMP280;36098;48.390;10.856;2023-08-06T10:33:43;95293.09;;;24.35
50206;BMP280;36098;48.390;10.856;2023-08-06T10:36:09;95293.88;;;24.36
50206;BMP280;36098;48.390;10.856;2023-08-06T10:38:36;95293.47;;;24.42
50206;BMP280;36098;48.390;10.856;2023-08-06T10:41:15;95308.13;;;24.48
50206;BMP280;36098;48.390;10.856;2023-08-06T10:43:40;95312.91;;;24.46
50206;BMP280;36098;48.390;10.856;2023-08-06T10:46:21;95303.44;;;24.45
50206;BMP280;36098;48.390;10.856;2023-08-06T10:48:46;95302.84;;;24.48
50206;BMP280;36098;48.390;10.856;2023-08-06T10:51:14;95297.34;;;24.45
50206;BMP280;36098;48.390;10.856;2023-08-06T10:53:45;95305.59;;;24.43
50206;BMP280;36098;48.390;10.856;2023-08-06T10:56:17;95312.03;;;24.51
50206;BMP280;36098;48.390;10.856;2023-08-06T10:58:43;95299.63;;;24.51
50206;BMP280;36098;48.390;10.856;2023-08-06T11:01:10;95295.41;;;24.50
50206;BMP280;36098;48.390;10.856;2023-08-06T11:03:35;95293.19;;;24.57
50206;BMP280;36098;48.390;10.856;2023-08-06T11:06:01;95288.47;;;24.54
50206;BMP280;36098;48.390;10.856;2023-08-06T11:08:33;95286.16;;;24.53
50206;BMP280;36098;48.390;10.856;2023-08-06T11:11:12;95295.41;;;24.50
50206;BMP280;36098;48.390;10.856;2023-08-06T11:13:45;95292.19;;;24.53
50206;BMP280;36098;48.390;10.856;2023-08-06T11:16:12;95298.94;;;24.59
50206;BMP280;36098;48.390;10.856;2023-08-06T11:18:39;95287.59;;;24.59
50206;BMP280;36098;48.390;10.856;2023-08-06T11:21:05;95291.03;;;24.59
50206;BMP280;36098;48.390;10.856;2023-08-06T11:23:30;95293.66;;;24.59
50206;BMP280;36098;48.390;10.856;2023-08-06T11:25:58;95305.47;;;24.62
50206;BMP280;36098;48.390;10.856;2023-08-06T11:28:24;95289.34;;;24.63
50206;BMP280;36098;48.390;10.856;2023-08-06T11:30:50;95284.34;;;24.75
50206;BMP280;36098;48.390;10.856;2023-08-06T11:33:25;95284.47;;;24.57
50206;BMP280;36098;48.390;10.856;2023-08-06T11:35:51;95288.00;;;24.66
50206;BMP280;36098;48.390;10.856;2023-08-06T11:38:17;95284.50;;;24.30
50206;BMP280;36098;48.390;10.856;2023-08-06T11:40:44;95290.06;;;24.01
50206;BMP280;36098;48.390;10.856;2023-08-06T11:43:11;95296.50;;;23.95
50206;BMP280;36098;48.390;10.856;2023-08-06T11:45:37;95288.59;;;23.95
50206;BMP280;36098;48.390;10.856;2023-08-06T11:48:02;95308.31;;;24.11
50206;BMP280;36098;48.390;10.856;2023-08-06T11:50:28;95294.84;;;24.26
50206;BMP280;36098;48.390;10.856;2023-08-06T11:53:00;95301.09;;;24.17
50206;BMP280;36098;48.390;10.856;2023-08-06T11:55:27;95306.97;;;24.27
50206;BMP280;36098;48.390;10.856;2023-08-06T11:57:56;95308.34;;;24.52
50206;BMP280;36098;48.390;10.856;2023-08-06T12:00:25;95308.47;;;24.82
50206;BMP280;36098;48.390;10.856;2023-08-06T12:02:51;95306.34;;;24.71
50206;BMP280;36098;48.390;10.856;2023-08-06T12:05:19;95315.25;;;24.34
50206;BMP280;36098;48.390;10.856;2023-08-06T12:07:56;95311.66;;;24.30
50206;BMP280;36098;48.390;10.856;2023-08-06T12:10:22;95329.44;;;24.38
50206;BMP280;36098;48.390;10.856;2023-08-06T12:12:49;95327.59;;;24.52
50206;BMP280;36098;48.390;10.856;2023-08-06T12:15:15;95324.19;;;24.52
50206;BMP280;36098;48.390;10.856;2023-08-06T12:17:40;95333.56;;;24.17
50206;BMP280;36098;48.390;10.856;2023-08-06T12:20:06;95334.53;;;24.21
50206;BMP280;36098;48.390;10.856;2023-08-06T12:22:36;95337.25;;;24.16
50206;BMP280;36098;48.390;10.856;2023-08-06T12:25:03;95335.41;;;24.03
50206;BMP280;36098;48.390;10.856;2023-08-06T12:27:29;95331.56;;;24.09
50206;BMP280;36098;48.390;10.856;2023-08-06T12:29:54;95330.31;;;24.20
50206;BMP280;36098;48.390;10.856;2023-08-06T12:32:19;95321.44;;;24.30
50206;BMP280;36098;48.390;10.856;2023-08-06T12:34:44;95325.72;;;24.39
50206;BMP280;36098;48.390;10.856;2023-08-06T12:37:10;95323.97;;;24.35
50206;BMP280;36098;48.390;10.856;2023-08-06T12:39:35;95332.47;;;24.45
50206;BMP280;36098;48.390;10.856;2023-08-06T12:42:03;95324.06;;;24.43
50206;BMP280;36098;48.390;10.856;2023-08-06T12:44:28;95330.81;;;24.36
50206;BMP280;36098;48.390;10.856;2023-08-06T12:46:54;95322.00;;;24.40
50206;BMP280;36098;48.390;10.856;2023-08-06T12:49:20;95325.13;;;24.42
50206;BMP280;36098;48.390;10.856;2023-08-06T12:51:50;95325.91;;;24.70
50206;BMP280;36098;48.390;10.856;2023-08-06T12:54:16;95341.13;;;24.86
50206;BMP280;36098;48.390;10.856;2023-08-06T12:56:43;95339.56;;;24.85
50206;BMP280;36098;48.390;10.856;2023-08-06T12:59:08;95335.84;;;24.86
50206;BMP280;36098;48.390;10.856;2023-08-06T13:01:33;95322.53;;;24.91
50206;BMP280;36098;48.390;10.856;2023-08-06T13:04:00;95329.34;;;25.06
50206;BMP280;36098;48.390;10.856;2023-08-06T13:06:25;95330.63;;;25.30
50206;BMP280;36098;48.390;10.856;2023-08-06T13:08:50;95342.66;;;25.36
50206;BMP280;36098;48.390;10.856;2023-08-06T13:11:15;95316.47;;;25.26
50206;BMP280;36098;48.390;10.856;2023-08-06T13:13:41;95344.94;;;25.15
50206;BMP280;36098;48.390;10.856;2023-08-06T13:16:06;95340.13;;;24.96
50206;BMP280;36098;48.390;10.856;2023-08-06T13:18:31;95347.00;;;24.83
50206;BMP280;36098;48.390;10.856;2023-08-06T13:20:57;95344.09;;;24.44
50206;BMP280;36098;48.390;10.856;2023-08-06T13:23:22;95349.00;;;24.37
50206;BMP280;36098;48.390;10.856;2023-08-06T13:25:47;95352.41;;;24.78
50206;BMP280;36098;48.390;10.856;2023-08-06T13:28:12;95334.25;;;24.99
50206;BMP280;36098;48.390;10.856;2023-08-06T13:30:39;95336.84;;;24.77
50206;BMP280;36098;48.390;10.856;2023-08-06T13:33:11;95350.88;;;24.99
50206;BMP280;36098;48.390;10.856;2023-08-06T13:35:36;95352.97;;;25.24
50206;BMP280;36098;48.390;10.856;2023-08-06T13:38:01;95369.63;;;25.24
50206;BMP280;36098;48.390;10.856;2023-08-06T13:40:28;95362.16;;;25.26
50206;BMP280;36098;48.390;10.856;2023-08-06T13:42:55;95366.97;;;25.11
50206;BMP280;36098;48.390;10.856;2023-08-06T13:45:20;95367.09;;;25.06
50206;BMP280;36098;48.390;10.856;2023-08-06T13:47:46;95361.19;;;25.22
50206;BMP280;36098;48.390;10.856;2023-08-06T13:50:11;95365.72;;;25.09
50206;BMP280;36098;48.390;10.856;2023-08-06T13:52:36;95371.34;;;25.29
50206;BMP280;36098;48.390;10.856;2023-08-06T13:55:02;95383.59;;;24.76
50206;BMP280;36098;48.390;10.856;2023-08-06T13:57:29;95379.22;;;24.58
50206;BMP280;36098;48.390;10.856;2023-08-06T13:59:54;95361.31;;;24.55